To NAV CANADA Home Page Login to a new session Search on AWWS site Feedback and Comments Disclaimer Vers la page française équivalente Tips FAQ What's new on the site To the Forecasts and Observations / NOTAM section To "File a Flight Plan" website Publications and other links Update of the User's profile FIC Telephone Numbers My Weather Data Folder Route Weather Data Regional Weather Data Local Weather Data To the Forecasts and Observations / NOTAM section
Request Generated 05/25/2016 at 07:08:15 UTC . Weather information available at that time is displayed.

METAR/TAF

RED DEER/RED DEER REGIONAL/AB    

METAR CYQF 250700Z 17005KT 15SM SKC 07/04 A2983 RMK SLP122=
METAR CYQF 250600Z 18004KT 15SM SKC 08/05 A2983 RMK SLP122=
METAR CYQF 250500Z 13004KT 15SM SKC 09/05 A2983 RMK SLP121 DENSITY
ALT 3000FT=

TAF CYQF 250538Z 2506/2518 14008KT P6SM SKC PROB30 2511/2514 1/2SM FG
VV004
FM251400 18008KT P6SM FEW200
RMK NXT FCST BY 251200Z=
Your time UTC time
Weather data provided by Environment Canada and NAV CANADA